sensor_id;sensor_type;location;lat;lon;timestamp;P1;durP1;ratioP1;P2;durP2;ratioP2
47882;SDS011;37739;50.350;7.578;2024-03-22T00:02:14;12.40;;;11.20;;
47882;SDS011;37739;50.350;7.578;2024-03-22T00:04:41;12.80;;;11.50;;
47882;SDS011;37739;50.350;7.578;2024-03-22T00:07:06;13.77;;;12.37;;
47882;SDS011;37739;50.350;7.578;2024-03-22T00:09:32;13.87;;;12.10;;
47882;SDS011;37739;50.350;7.578;2024-03-22T00:11:59;13.17;;;11.90;;
47882;SDS011;37739;50.350;7.578;2024-03-22T00:14:25;15.70;;;13.37;;
47882;SDS011;37739;50.350;7.578;2024-03-22T00:16:50;11.40;;;10.33;;
47882;SDS011;37739;50.350;7.578;2024-03-22T00:19:15;11.70;;;10.47;;
47882;SDS011;37739;50.350;7.578;2024-03-22T00:21:43;11.27;;;9.97;;
47882;SDS011;37739;50.350;7.578;2024-03-22T00:24:09;10.60;;;9.60;;
47882;SDS011;37739;50.350;7.578;2024-03-22T00:26:36;10.07;;;8.90;;
47882;SDS011;37739;50.350;7.578;2024-03-22T00:29:06;11.97;;;10.77;;
47882;SDS011;37739;50.350;7.578;2024-03-22T00:31:34;11.97;;;10.60;;
47882;SDS011;37739;50.350;7.578;2024-03-22T00:33:59;10.67;;;9.67;;
47882;SDS011;37739;50.350;7.578;2024-03-22T00:36:25;10.50;;;9.37;;
47882;SDS011;37739;50.350;7.578;2024-03-22T00:38:53;9.93;;;8.73;;
47882;SDS011;37739;50.350;7.578;2024-03-22T00:41:21;9.13;;;8.27;;
47882;SDS011;37739;50.350;7.578;2024-03-22T00:43:46;10.00;;;9.00;;
47882;SDS011;37739;50.350;7.578;2024-03-22T00:46:14;9.40;;;8.50;;
47882;SDS011;37739;50.350;7.578;2024-03-22T00:48:39;11.47;;;10.27;;
47882;SDS011;37739;50.350;7.578;2024-03-22T00:51:04;11.03;;;9.43;;
47882;SDS011;37739;50.350;7.578;2024-03-22T00:53:32;11.07;;;9.97;;
47882;SDS011;37739;50.350;7.578;2024-03-22T00:56:00;10.97;;;9.87;;
47882;SDS011;37739;50.350;7.578;2024-03-22T00:58:26;11.30;;;10.10;;
47882;SDS011;37739;50.350;7.578;2024-03-22T01:00:52;11.40;;;10.30;;
47882;SDS011;37739;50.350;7.578;2024-03-22T01:03:17;10.20;;;9.20;;
47882;SDS011;37739;50.350;7.578;2024-03-22T01:05:43;10.27;;;9.20;;
47882;SDS011;37739;50.350;7.578;2024-03-22T01:08:11;10.10;;;8.63;;
47882;SDS011;37739;50.350;7.578;2024-03-22T01:10:39;11.77;;;10.50;;
47882;SDS011;37739;50.350;7.578;2024-03-22T01:13:05;10.03;;;9.03;;
47882;SDS011;37739;50.350;7.578;2024-03-22T01:15:31;10.50;;;9.40;;
47882;SDS011;37739;50.350;7.578;2024-03-22T01:17:56;10.53;;;9.50;;
47882;SDS011;37739;50.350;7.578;2024-03-22T01:20:22;11.27;;;10.17;;
47882;SDS011;37739;50.350;7.578;2024-03-22T01:22:49;10.57;;;9.50;;
47882;SDS011;37739;50.350;7.578;2024-03-22T01:25:17;11.37;;;10.17;;
47882;SDS011;37739;50.350;7.578;2024-03-22T01:27:43;11.17;;;10.00;;
47882;SDS011;37739;50.350;7.578;2024-03-22T01:30:10;10.67;;;9.67;;
47882;SDS011;37739;50.350;7.578;2024-03-22T01:32:36;11.67;;;10.50;;
47882;SDS011;37739;50.350;7.578;2024-03-22T01:35:02;11.70;;;10.60;;
47882;SDS011;37739;50.350;7.578;2024-03-22T01:37:29;11.30;;;10.20;;
47882;SDS011;37739;50.350;7.578;2024-03-22T01:39:55;10.10;;;9.20;;
47882;SDS011;37739;50.350;7.578;2024-03-22T01:42:22;10.23;;;9.20;;
47882;SDS011;37739;50.350;7.578;2024-03-22T01:44:50;11.17;;;10.07;;
47882;SDS011;37739;50.350;7.578;2024-03-22T01:47:16;9.60;;;8.63;;
47882;SDS011;37739;50.350;7.578;2024-03-22T01:49:42;9.87;;;8.93;;
47882;SDS011;37739;50.350;7.578;2024-03-22T01:52:08;9.80;;;8.87;;
47882;SDS011;37739;50.350;7.578;2024-03-22T01:54:36;10.47;;;9.37;;
47882;SDS011;37739;50.350;7.578;2024-03-22T01:57:03;12.20;;;10.33;;
47882;SDS011;37739;50.350;7.578;2024-03-22T01:59:29;10.20;;;9.00;;
47882;SDS011;37739;50.350;7.578;2024-03-22T02:01:59;9.80;;;8.80;;
47882;SDS011;37739;50.350;7.578;2024-03-22T02:04:27;9.27;;;8.03;;
47882;SDS011;37739;50.350;7.578;2024-03-22T02:06:55;10.40;;;9.30;;
47882;SDS011;37739;50.350;7.578;2024-03-22T02:09:20;8.33;;;7.53;;
47882;SDS011;37739;50.350;7.578;2024-03-22T02:11:51;9.10;;;8.20;;
47882;SDS011;37739;50.350;7.578;2024-03-22T02:14:16;10.20;;;9.03;;
47882;SDS011;37739;50.350;7.578;2024-03-22T02:16:43;9.90;;;8.57;;
47882;SDS011;37739;50.350;7.578;2024-03-22T02:19:14;9.23;;;8.20;;
47882;SDS011;37739;50.350;7.578;2024-03-22T02:21:39;9.60;;;8.60;;
47882;SDS011;37739;50.350;7.578;2024-03-22T02:24:07;9.43;;;8.43;;
47882;SDS011;37739;50.350;7.578;2024-03-22T02:26:34;8.70;;;7.80;;
47882;SDS011;37739;50.350;7.578;2024-03-22T02:29:00;10.47;;;9.07;;
47882;SDS011;37739;50.350;7.578;2024-03-22T02:31:27;10.70;;;9.47;;
47882;SDS011;37739;50.350;7.578;2024-03-22T02:33:55;14.90;;;8.90;;
47882;SDS011;37739;50.350;7.578;2024-03-22T02:36:23;9.97;;;8.97;;
47882;SDS011;37739;50.350;7.578;2024-03-22T02:38:48;10.67;;;9.10;;
47882;SDS011;37739;50.350;7.578;2024-03-22T02:41:13;10.13;;;9.13;;
47882;SDS011;37739;50.350;7.578;2024-03-22T02:43:39;9.87;;;8.87;;
47882;SDS011;37739;50.350;7.578;2024-03-22T02:46:04;8.97;;;8.07;;
47882;SDS011;37739;50.350;7.578;2024-03-22T02:48:32;9.03;;;8.03;;
47882;SDS011;37739;50.350;7.578;2024-03-22T02:50:57;9.53;;;8.17;;
47882;SDS011;37739;50.350;7.578;2024-03-22T02:53:23;10.00;;;8.70;;
47882;SDS011;37739;50.350;7.578;2024-03-22T02:55:50;10.17;;;8.67;;
47882;SDS011;37739;50.350;7.578;2024-03-22T02:58:16;8.60;;;7.30;;
47882;SDS011;37739;50.350;7.578;2024-03-22T03:00:44;12.07;;;8.27;;
47882;SDS011;37739;50.350;7.578;2024-03-22T03:03:10;9.47;;;8.40;;
47882;SDS011;37739;50.350;7.578;2024-03-22T03:05:35;8.13;;;7.03;;
47882;SDS011;37739;50.350;7.578;2024-03-22T03:08:00;7.97;;;7.23;;
47882;SDS011;37739;50.350;7.578;2024-03-22T03:10:26;9.23;;;8.20;;
47882;SDS011;37739;50.350;7.578;2024-03-22T03:12:54;12.23;;;8.27;;
47882;SDS011;37739;50.350;7.578;2024-03-22T03:15:21;11.23;;;8.83;;
47882;SDS011;37739;50.350;7.578;2024-03-22T03:17:47;9.93;;;8.10;;
47882;SDS011;37739;50.350;7.578;2024-03-22T03:20:16;9.83;;;7.50;;
47882;SDS011;37739;50.350;7.578;2024-03-22T03:22:42;9.33;;;8.20;;
47882;SDS011;37739;50.350;7.578;2024-03-22T03:25:09;9.03;;;8.10;;
47882;SDS011;37739;50.350;7.578;2024-03-22T03:27:37;10.40;;;8.33;;
47882;SDS011;37739;50.350;7.578;2024-03-22T03:30:02;9.77;;;7.80;;
47882;SDS011;37739;50.350;7.578;2024-03-22T03:32:28;8.37;;;7.27;;
47882;SDS011;37739;50.350;7.578;2024-03-22T03:34:54;9.50;;;7.80;;
47882;SDS011;37739;50.350;7.578;2024-03-22T03:37:22;8.83;;;7.30;;
47882;SDS011;37739;50.350;7.578;2024-03-22T03:39:50;8.63;;;7.53;;
47882;SDS011;37739;50.350;7.578;2024-03-22T03:42:17;9.27;;;8.27;;
47882;SDS011;37739;50.350;7.578;2024-03-22T03:44:42;9.37;;;7.53;;
47882;SDS011;37739;50.350;7.578;2024-03-22T03:47:08;9.10;;;6.83;;
47882;SDS011;37739;50.350;7.578;2024-03-22T03:49:36;9.13;;;7.67;;
47882;SDS011;37739;50.350;7.578;2024-03-22T03:52:01;10.40;;;7.20;;
47882;SDS011;37739;50.350;7.578;2024-03-22T03:54:29;7.77;;;6.60;;
47882;SDS011;37739;50.350;7.578;2024-03-22T03:56:57;10.27;;;7.43;;
47882;SDS011;37739;50.350;7.578;2024-03-22T03:59:22;9.20;;;7.27;;
47882;SDS011;37739;50.350;7.578;2024-03-22T04:01:48;9.40;;;7.57;;
47882;SDS011;37739;50.350;7.578;2024-03-22T04:04:13;7.77;;;6.93;;
47882;SDS011;37739;50.350;7.578;2024-03-22T04:06:43;9.23;;;8.17;;
47882;SDS011;37739;50.350;7.578;2024-03-22T04:09:09;9.13;;;8.07;;
47882;SDS011;37739;50.350;7.578;2024-03-22T04:11:36;8.53;;;6.50;;
47882;SDS011;37739;50.350;7.578;2024-03-22T04:14:02;7.13;;;6.33;;
47882;SDS011;37739;50.350;7.578;2024-03-22T04:16:28;9.60;;;7.60;;
47882;SDS011;37739;50.350;7.578;2024-03-22T04:18:54;8.10;;;6.27;;
47882;SDS011;37739;50.350;7.578;2024-03-22T04:21:21;6.90;;;6.10;;
47882;SDS011;37739;50.350;7.578;2024-03-22T04:23:47;8.67;;;6.40;;
47882;SDS011;37739;50.350;7.578;2024-03-22T04:26:12;8.03;;;5.97;;
47882;SDS011;37739;50.350;7.578;2024-03-22T04:28:37;10.10;;;6.63;;
47882;SDS011;37739;50.350;7.578;2024-03-22T04:31:06;8.60;;;6.97;;
47882;SDS011;37739;50.350;7.578;2024-03-22T04:33:34;7.67;;;6.57;;
47882;SDS011;37739;50.350;7.578;2024-03-22T04:36:02;8.50;;;6.47;;
47882;SDS011;37739;50.350;7.578;2024-03-22T04:38:28;6.63;;;5.70;;
47882;SDS011;37739;50.350;7.578;2024-03-22T04:40:57;7.20;;;5.87;;
47882;SDS011;37739;50.350;7.578;2024-03-22T04:43:26;8.80;;;6.37;;
47882;SDS011;37739;50.350;7.578;2024-03-22T04:45:51;7.50;;;6.33;;
47882;SDS011;37739;50.350;7.578;2024-03-22T04:48:18;6.53;;;5.87;;
47882;SDS011;37739;50.350;7.578;2024-03-22T04:50:45;7.30;;;6.30;;
47882;SDS011;37739;50.350;7.578;2024-03-22T04:53:10;7.00;;;5.80;;
47882;SDS011;37739;50.350;7.578;2024-03-22T04:55:35;6.67;;;5.87;;
47882;SDS011;37739;50.350;7.578;2024-03-22T04:58:01;7.90;;;5.93;;
47882;SDS011;37739;50.350;7.578;2024-03-22T05:00:29;7.97;;;7.10;;
47882;SDS011;37739;50.350;7.578;2024-03-22T05:02:54;8.10;;;6.90;;
47882;SDS011;37739;50.350;7.578;2024-03-22T05:05:22;8.10;;;6.23;;
47882;SDS011;37739;50.350;7.578;2024-03-22T05:07:52;8.50;;;6.70;;
47882;SDS011;37739;50.350;7.578;2024-03-22T05:10:20;7.23;;;6.27;;
47882;SDS011;37739;50.350;7.578;2024-03-22T05:12:48;8.60;;;6.70;;
47882;SDS011;37739;50.350;7.578;2024-03-22T05:15:15;6.77;;;5.90;;
47882;SDS011;37739;50.350;7.578;2024-03-22T05:17:41;9.00;;;6.33;;
47882;SDS011;37739;50.350;7.578;2024-03-22T05:20:08;8.43;;;6.33;;
47882;SDS011;37739;50.350;7.578;2024-03-22T05:22:36;8.37;;;6.10;;
47882;SDS011;37739;50.350;7.578;2024-03-22T05:25:07;9.47;;;6.97;;
47882;SDS011;37739;50.350;7.578;2024-03-22T05:27:33;10.93;;;7.00;;
47882;SDS011;37739;50.350;7.578;2024-03-22T05:29:59;7.43;;;6.40;;
47882;SDS011;37739;50.350;7.578;2024-03-22T05:32:25;8.57;;;6.43;;
47882;SDS011;37739;50.350;7.578;2024-03-22T05:34:53;7.70;;;6.10;;
47882;SDS011;37739;50.350;7.578;2024-03-22T05:37:18;6.47;;;5.20;;
47882;SDS011;37739;50.350;7.578;2024-03-22T05:39:45;8.33;;;6.40;;
47882;SDS011;37739;50.350;7.578;2024-03-22T05:42:10;7.17;;;5.87;;
47882;SDS011;37739;50.350;7.578;2024-03-22T05:44:35;8.47;;;6.70;;
47882;SDS011;37739;50.350;7.578;2024-03-22T05:47:01;8.57;;;6.50;;
47882;SDS011;37739;50.350;7.578;2024-03-22T05:49:26;7.77;;;5.70;;
47882;SDS011;37739;50.350;7.578;2024-03-22T05:51:54;7.30;;;6.10;;
47882;SDS011;37739;50.350;7.578;2024-03-22T05:54:20;7.80;;;6.07;;
47882;SDS011;37739;50.350;7.578;2024-03-22T05:56:45;6.73;;;5.90;;
47882;SDS011;37739;50.350;7.578;2024-03-22T05:59:11;6.87;;;5.47;;
47882;SDS011;37739;50.350;7.578;2024-03-22T06:01:36;7.30;;;5.67;;
47882;SDS011;37739;50.350;7.578;2024-03-22T06:04:05;6.27;;;5.60;;
47882;SDS011;37739;50.350;7.578;2024-03-22T06:06:36;6.93;;;6.23;;
47882;SDS011;37739;50.350;7.578;2024-03-22T06:09:01;6.47;;;4.73;;
47882;SDS011;37739;50.350;7.578;2024-03-22T06:11:34;6.70;;;5.57;;
47882;SDS011;37739;50.350;7.578;2024-03-22T06:13:59;5.83;;;4.70;;
47882;SDS011;37739;50.350;7.578;2024-03-22T06:16:27;6.40;;;5.80;;
47882;SDS011;37739;50.350;7.578;2024-03-22T06:18:52;9.43;;;6.23;;
47882;SDS011;37739;50.350;7.578;2024-03-22T06:21:20;7.37;;;4.70;;
47882;SDS011;37739;50.350;7.578;2024-03-22T06:23:49;6.73;;;5.00;;
47882;SDS011;37739;50.350;7.578;2024-03-22T06:26:18;6.03;;;4.60;;
47882;SDS011;37739;50.350;7.578;2024-03-22T06:28:45;7.80;;;5.17;;
47882;SDS011;37739;50.350;7.578;2024-03-22T06:31:13;5.80;;;5.20;;
47882;SDS011;37739;50.350;7.578;2024-03-22T06:33:38;6.90;;;5.10;;
47882;SDS011;37739;50.350;7.578;2024-03-22T06:36:03;5.10;;;4.60;;
47882;SDS011;37739;50.350;7.578;2024-03-22T06:38:31;7.13;;;4.50;;
47882;SDS011;37739;50.350;7.578;2024-03-22T06:40:57;4.90;;;4.07;;
47882;SDS011;37739;50.350;7.578;2024-03-22T06:43:24;5.33;;;4.30;;
47882;SDS011;37739;50.350;7.578;2024-03-22T06:45:51;5.50;;;4.83;;
47882;SDS011;37739;50.350;7.578;2024-03-22T06:48:17;3.73;;;3.00;;
47882;SDS011;37739;50.350;7.578;2024-03-22T06:50:47;5.70;;;4.53;;
47882;SDS011;37739;50.350;7.578;2024-03-22T06:53:13;6.40;;;4.60;;
47882;SDS011;37739;50.350;7.578;2024-03-22T06:55:38;6.13;;;5.00;;
47882;SDS011;37739;50.350;7.578;2024-03-22T06:58:04;6.27;;;4.87;;
47882;SDS011;37739;50.350;7.578;2024-03-22T07:00:31;6.47;;;4.63;;
47882;SDS011;37739;50.350;7.578;2024-03-22T07:02:59;4.23;;;3.80;;
47882;SDS011;37739;50.350;7.578;2024-03-22T07:05:29;5.90;;;4.50;;
47882;SDS011;37739;50.350;7.578;2024-03-22T07:07:55;5.53;;;5.03;;
47882;SDS011;37739;50.350;7.578;2024-03-22T07:10:22;4.40;;;4.00;;
47882;SDS011;37739;50.350;7.578;2024-03-22T07:12:52;5.33;;;3.77;;
47882;SDS011;37739;50.350;7.578;2024-03-22T07:15:17;5.00;;;4.30;;
47882;SDS011;37739;50.350;7.578;2024-03-22T07:17:45;4.70;;;3.87;;
47882;SDS011;37739;50.350;7.578;2024-03-22T07:20:10;5.50;;;3.80;;
47882;SDS011;37739;50.350;7.578;2024-03-22T07:22:36;7.37;;;4.50;;
47882;SDS011;37739;50.350;7.578;2024-03-22T07:25:01;5.00;;;4.27;;
47882;SDS011;37739;50.350;7.578;2024-03-22T07:27:26;5.77;;;3.90;;
47882;SDS011;37739;50.350;7.578;2024-03-22T07:29:54;6.33;;;4.43;;
47882;SDS011;37739;50.350;7.578;2024-03-22T07:32:19;4.70;;;4.07;;
47882;SDS011;37739;50.350;7.578;2024-03-22T07:34:46;4.70;;;3.83;;
47882;SDS011;37739;50.350;7.578;2024-03-22T07:37:13;5.90;;;3.90;;
47882;SDS011;37739;50.350;7.578;2024-03-22T07:39:41;4.27;;;3.53;;
47882;SDS011;37739;50.350;7.578;2024-03-22T07:42:08;5.00;;;3.93;;
47882;SDS011;37739;50.350;7.578;2024-03-22T07:44:34;4.83;;;4.10;;
47882;SDS011;37739;50.350;7.578;2024-03-22T07:46:59;4.20;;;3.67;;
47882;SDS011;37739;50.350;7.578;2024-03-22T07:49:24;4.67;;;3.80;;
47882;SDS011;37739;50.350;7.578;2024-03-22T07:51:49;4.80;;;3.83;;
47882;SDS011;37739;50.350;7.578;2024-03-22T07:54:15;4.97;;;3.50;;
47882;SDS011;37739;50.350;7.578;2024-03-22T07:56:41;3.60;;;3.20;;
47882;SDS011;37739;50.350;7.578;2024-03-22T07:59:06;4.20;;;3.50;;
47882;SDS011;37739;50.350;7.578;2024-03-22T08:01:37;3.97;;;3.57;;
47882;SDS011;37739;50.350;7.578;2024-03-22T08:04:02;4.00;;;3.60;;
47882;SDS011;37739;50.350;7.578;2024-03-22T08:06:30;4.90;;;3.93;;
47882;SDS011;37739;50.350;7.578;2024-03-22T08:08:55;5.37;;;3.53;;
47882;SDS011;37739;50.350;7.578;2024-03-22T08:11:20;4.80;;;3.90;;
47882;SDS011;37739;50.350;7.578;2024-03-22T08:13:46;4.90;;;4.40;;
47882;SDS011;37739;50.350;7.578;2024-03-22T08:16:13;4.47;;;3.70;;
47882;SDS011;37739;50.350;7.578;2024-03-22T08:18:39;3.90;;;3.50;;
47882;SDS011;37739;50.350;7.578;2024-03-22T08:21:04;8.00;;;4.30;;
47882;SDS011;37739;50.350;7.578;2024-03-22T08:23:33;6.50;;;3.97;;
47882;SDS011;37739;50.350;7.578;2024-03-22T08:25:59;5.87;;;4.43;;
47882;SDS011;37739;50.350;7.578;2024-03-22T08:28:24;5.03;;;4.53;;
47882;SDS011;37739;50.350;7.578;2024-03-22T08:30:50;4.90;;;4.20;;
47882;SDS011;37739;50.350;7.578;2024-03-22T08:33:15;4.03;;;3.70;;
47882;SDS011;37739;50.350;7.578;2024-03-22T08:35:40;6.77;;;4.60;;
47882;SDS011;37739;50.350;7.578;2024-03-22T08:38:06;3.70;;;3.30;;
47882;SDS011;37739;50.350;7.578;2024-03-22T08:40:38;4.43;;;4.03;;
47882;SDS011;37739;50.350;7.578;2024-03-22T08:43:05;4.83;;;4.03;;
47882;SDS011;37739;50.350;7.578;2024-03-22T08:45:32;4.13;;;3.13;;
47882;SDS011;37739;50.350;7.578;2024-03-22T08:47:57;4.27;;;3.30;;
47882;SDS011;37739;50.350;7.578;2024-03-22T08:50:23;4.70;;;3.50;;
47882;SDS011;37739;50.350;7.578;2024-03-22T08:52:53;5.77;;;4.00;;
47882;SDS011;37739;50.350;7.578;2024-03-22T08:55:19;4.33;;;3.60;;
47882;SDS011;37739;50.350;7.578;2024-03-22T08:57:44;4.10;;;3.10;;
47882;SDS011;37739;50.350;7.578;2024-03-22T09:00:14;3.97;;;3.57;;
47882;SDS011;37739;50.350;7.578;2024-03-22T09:02:44;4.90;;;3.63;;
47882;SDS011;37739;50.350;7.578;2024-03-22T09:05:12;5.10;;;4.30;;
47882;SDS011;37739;50.350;7.578;2024-03-22T09:07:42;4.30;;;3.00;;
47882;SDS011;37739;50.350;7.578;2024-03-22T09:10:13;4.77;;;3.83;;
47882;SDS011;37739;50.350;7.578;2024-03-22T09:12:38;5.83;;;3.80;;
47882;SDS011;37739;50.350;7.578;2024-03-22T09:15:06;4.73;;;4.20;;
47882;SDS011;37739;50.350;7.578;2024-03-22T09:17:36;5.10;;;4.37;;
47882;SDS011;37739;50.350;7.578;2024-03-22T09:20:03;4.63;;;3.80;;
47882;SDS011;37739;50.350;7.578;2024-03-22T09:22:30;5.40;;;4.43;;
47882;SDS011;37739;50.350;7.578;2024-03-22T09:24:57;5.13;;;4.37;;
47882;SDS011;37739;50.350;7.578;2024-03-22T09:27:23;5.67;;;5.17;;
47882;SDS011;37739;50.350;7.578;2024-03-22T09:29:50;5.10;;;4.47;;
47882;SDS011;37739;50.350;7.578;2024-03-22T09:32:18;6.53;;;4.93;;
47882;SDS011;37739;50.350;7.578;2024-03-22T09:34:43;6.20;;;5.23;;
47882;SDS011;37739;50.350;7.578;2024-03-22T09:37:08;5.53;;;4.90;;
47882;SDS011;37739;50.350;7.578;2024-03-22T09:39:36;5.03;;;4.53;;
47882;SDS011;37739;50.350;7.578;2024-03-22T09:42:05;6.10;;;5.23;;
47882;SDS011;37739;50.350;7.578;2024-03-22T09:44:33;6.10;;;5.50;;
47882;SDS011;37739;50.350;7.578;2024-03-22T09:47:02;6.20;;;5.40;;
47882;SDS011;37739;50.350;7.578;2024-03-22T09:49:28;5.87;;;5.27;;
47882;SDS011;37739;50.350;7.578;2024-03-22T09:51:53;5.93;;;5.40;;
47882;SDS011;37739;50.350;7.578;2024-03-22T09:54:19;6.33;;;5.73;;
47882;SDS011;37739;50.350;7.578;2024-03-22T09:56:47;7.10;;;4.93;;
47882;SDS011;37739;50.350;7.578;2024-03-22T09:59:15;6.70;;;5.40;;
47882;SDS011;37739;50.350;7.578;2024-03-22T10:01:43;4.60;;;4.20;;
47882;SDS011;37739;50.350;7.578;2024-03-22T10:04:10;6.10;;;5.50;;
47882;SDS011;37739;50.350;7.578;2024-03-22T10:06:40;6.43;;;5.83;;
47882;SDS011;37739;50.350;7.578;2024-03-22T10:09:05;7.60;;;5.70;;
47882;SDS011;37739;50.350;7.578;2024-03-22T10:11:31;7.67;;;6.10;;
47882;SDS011;37739;50.350;7.578;2024-03-22T10:14:01;7.30;;;6.00;;
47882;SDS011;37739;50.350;7.578;2024-03-22T10:16:32;7.63;;;6.83;;
47882;SDS011;37739;50.350;7.578;2024-03-22T10:19:01;6.13;;;5.53;;
47882;SDS011;37739;50.350;7.578;2024-03-22T10:21:26;6.70;;;6.10;;
47882;SDS011;37739;50.350;7.578;2024-03-22T10:23:54;6.50;;;5.83;;
47882;SDS011;37739;50.350;7.578;2024-03-22T10:26:24;7.17;;;6.47;;
47882;SDS011;37739;50.350;7.578;2024-03-22T10:28:50;5.80;;;4.63;;
47882;SDS011;37739;50.350;7.578;2024-03-22T10:31:15;10.50;;;7.80;;
47882;SDS011;37739;50.350;7.578;2024-03-22T10:33:44;7.33;;;6.20;;
47882;SDS011;37739;50.350;7.578;2024-03-22T10:36:09;9.30;;;5.97;;
47882;SDS011;37739;50.350;7.578;2024-03-22T10:38:38;7.60;;;6.07;;
47882;SDS011;37739;50.350;7.578;2024-03-22T10:41:04;7.93;;;7.23;;
47882;SDS011;37739;50.350;7.578;2024-03-22T10:43:32;7.50;;;6.80;;
47882;SDS011;37739;50.350;7.578;2024-03-22T10:46:00;7.30;;;6.60;;
47882;SDS011;37739;50.350;7.578;2024-03-22T10:48:29;6.47;;;5.13;;
47882;SDS011;37739;50.350;7.578;2024-03-22T10:50:58;10.80;;;7.27;;
47882;SDS011;37739;50.350;7.578;2024-03-22T10:53:25;7.97;;;7.27;;
47882;SDS011;37739;50.350;7.578;2024-03-22T10:55:52;8.27;;;7.47;;
47882;SDS011;37739;50.350;7.578;2024-03-22T10:58:23;6.73;;;6.13;;
47882;SDS011;37739;50.350;7.578;2024-03-22T11:00:52;9.83;;;8.27;;
47882;SDS011;37739;50.350;7.578;2024-03-22T11:03:21;8.50;;;7.70;;
47882;SDS011;37739;50.350;7.578;2024-03-22T11:05:50;8.30;;;7.60;;
47882;SDS011;37739;50.350;7.578;2024-03-22T11:08:23;10.23;;;8.57;;
47882;SDS011;37739;50.350;7.578;2024-03-22T11:10:52;7.33;;;6.60;;
47882;SDS011;37739;50.350;7.578;2024-03-22T11:13:21;8.23;;;7.37;;
47882;SDS011;37739;50.350;7.578;2024-03-22T11:15:49;8.73;;;7.83;;
47882;SDS011;37739;50.350;7.578;2024-03-22T11:18:16;8.07;;;7.33;;
47882;SDS011;37739;50.350;7.578;2024-03-22T11:20:44;10.60;;;8.40;;
47882;SDS011;37739;50.350;7.578;2024-03-22T11:23:12;8.20;;;7.20;;
47882;SDS011;37739;50.350;7.578;2024-03-22T11:25:40;8.87;;;8.07;;
47882;SDS011;37739;50.350;7.578;2024-03-22T11:28:05;10.27;;;8.40;;
47882;SDS011;37739;50.350;7.578;2024-03-22T11:30:31;7.83;;;7.13;;
47882;SDS011;37739;50.350;7.578;2024-03-22T11:33:05;11.20;;;8.40;;
47882;SDS011;37739;50.350;7.578;2024-03-22T11:35:31;8.00;;;7.30;;
47882;SDS011;37739;50.350;7.578;2024-03-22T11:37:56;8.57;;;7.17;;
47882;SDS011;37739;50.350;7.578;2024-03-22T11:40:23;8.10;;;7.30;;
47882;SDS011;37739;50.350;7.578;2024-03-22T11:42:54;9.87;;;8.87;;
47882;SDS011;37739;50.350;7.578;2024-03-22T11:45:22;9.93;;;8.90;;
47882;SDS011;37739;50.350;7.578;2024-03-22T11:47:51;9.40;;;8.43;;
47882;SDS011;37739;50.350;7.578;2024-03-22T11:50:16;11.57;;;8.50;;
47882;SDS011;37739;50.350;7.578;2024-03-22T11:52:42;9.57;;;8.53;;
47882;SDS011;37739;50.350;7.578;2024-03-22T11:55:12;8.83;;;8.00;;
47882;SDS011;37739;50.350;7.578;2024-03-22T11:57:38;11.07;;;9.70;;
47882;SDS011;37739;50.350;7.578;2024-03-22T12:00:08;9.50;;;8.50;;
47882;SDS011;37739;50.350;7.578;2024-03-22T12:02:37;9.90;;;7.43;;
47882;SDS011;37739;50.350;7.578;2024-03-22T12:05:05;8.77;;;7.97;;
47882;SDS011;37739;50.350;7.578;2024-03-22T12:07:31;8.20;;;6.40;;
47882;SDS011;37739;50.350;7.578;2024-03-22T12:09:57;10.70;;;8.63;;
47882;SDS011;37739;50.350;7.578;2024-03-22T12:12:23;8.57;;;7.60;;
47882;SDS011;37739;50.350;7.578;2024-03-22T12:14:49;10.10;;;7.73;;
47882;SDS011;37739;50.350;7.578;2024-03-22T12:17:17;8.90;;;8.00;;
47882;SDS011;37739;50.350;7.578;2024-03-22T12:19:45;8.03;;;6.63;;
47882;SDS011;37739;50.350;7.578;2024-03-22T12:22:13;8.60;;;7.77;;
47882;SDS011;37739;50.350;7.578;2024-03-22T12:24:38;7.40;;;6.70;;
47882;SDS011;37739;50.350;7.578;2024-03-22T12:27:03;8.50;;;7.50;;
47882;SDS011;37739;50.350;7.578;2024-03-22T12:29:29;9.50;;;8.50;;
47882;SDS011;37739;50.350;7.578;2024-03-22T12:32:00;6.93;;;5.83;;
47882;SDS011;37739;50.350;7.578;2024-03-22T12:34:28;8.50;;;7.10;;
47882;SDS011;37739;50.350;7.578;2024-03-22T12:36:58;8.93;;;8.03;;
47882;SDS011;37739;50.350;7.578;2024-03-22T12:39:23;8.70;;;7.63;;
47882;SDS011;37739;50.350;7.578;2024-03-22T12:41:49;7.07;;;6.47;;
47882;SDS011;37739;50.350;7.578;2024-03-22T12:44:17;8.33;;;7.50;;
47882;SDS011;37739;50.350;7.578;2024-03-22T12:46:42;7.03;;;6.27;;
47882;SDS011;37739;50.350;7.578;2024-03-22T12:49:09;8.50;;;7.70;;
47882;SDS011;37739;50.350;7.578;2024-03-22T12:51:35;6.97;;;5.83;;
47882;SDS011;37739;50.350;7.578;2024-03-22T12:54:01;7.60;;;6.90;;
47882;SDS011;37739;50.350;7.578;2024-03-22T12:56:31;7.20;;;6.27;;
47882;SDS011;37739;50.350;7.578;2024-03-22T12:58:58;9.00;;;6.20;;
47882;SDS011;37739;50.350;7.578;2024-03-22T13:01:24;7.30;;;6.60;;
47882;SDS011;37739;50.350;7.578;2024-03-22T13:03:49;7.40;;;6.70;;
47882;SDS011;37739;50.350;7.578;2024-03-22T13:06:14;9.90;;;7.23;;
47882;SDS011;37739;50.350;7.578;2024-03-22T13:08:42;7.63;;;6.87;;
47882;SDS011;37739;50.350;7.578;2024-03-22T13:11:08;7.53;;;6.30;;
47882;SDS011;37739;50.350;7.578;2024-03-22T13:13:36;6.87;;;5.80;;
47882;SDS011;37739;50.350;7.578;2024-03-22T13:16:01;7.20;;;6.20;;
47882;SDS011;37739;50.350;7.578;2024-03-22T13:18:28;8.13;;;7.17;;
47882;SDS011;37739;50.350;7.578;2024-03-22T13:20:53;7.20;;;6.03;;
47882;SDS011;37739;50.350;7.578;2024-03-22T13:23:19;7.47;;;6.70;;
47882;SDS011;37739;50.350;7.578;2024-03-22T13:25:49;9.80;;;8.57;;
47882;SDS011;37739;50.350;7.578;2024-03-22T13:28:17;7.60;;;6.80;;
47882;SDS011;37739;50.350;7.578;2024-03-22T13:30:49;7.83;;;7.10;;
47882;SDS011;37739;50.350;7.578;2024-03-22T13:33:27;8.30;;;7.40;;
47882;SDS011;37739;50.350;7.578;2024-03-22T13:35:53;6.80;;;6.20;;
47882;SDS011;37739;50.350;7.578;2024-03-22T13:38:21;6.87;;;6.27;;
47882;SDS011;37739;50.350;7.578;2024-03-22T13:40:57;6.00;;;5.37;;
47882;SDS011;37739;50.350;7.578;2024-03-22T13:43:25;5.70;;;5.03;;
47882;SDS011;37739;50.350;7.578;2024-03-22T13:45:53;6.00;;;5.30;;
47882;SDS011;37739;50.350;7.578;2024-03-22T13:48:20;6.20;;;5.60;;
47882;SDS011;37739;50.350;7.578;2024-03-22T13:50:49;5.77;;;5.17;;
47882;SDS011;37739;50.350;7.578;2024-03-22T13:53:16;6.13;;;5.40;;
47882;SDS011;37739;50.350;7.578;2024-03-22T13:55:46;5.90;;;5.23;;
47882;SDS011;37739;50.350;7.578;2024-03-22T13:58:12;6.87;;;5.33;;
47882;SDS011;37739;50.350;7.578;2024-03-22T14:00:37;7.07;;;6.37;;
47882;SDS011;37739;50.350;7.578;2024-03-22T14:03:08;6.30;;;5.50;;
47882;SDS011;37739;50.350;7.578;2024-03-22T14:05:35;5.23;;;4.50;;
47882;SDS011;37739;50.350;7.578;2024-03-22T14:08:03;5.70;;;5.10;;
47882;SDS011;37739;50.350;7.578;2024-03-22T14:10:29;5.50;;;4.20;;
47882;SDS011;37739;50.350;7.578;2024-03-22T14:12:58;5.77;;;4.50;;
47882;SDS011;37739;50.350;7.578;2024-03-22T14:15:26;5.90;;;4.50;;
47882;SDS011;37739;50.350;7.578;2024-03-22T14:17:57;5.03;;;4.57;;
47882;SDS011;37739;50.350;7.578;2024-03-22T14:20:23;4.20;;;3.30;;
47882;SDS011;37739;50.350;7.578;2024-03-22T14:22:49;4.60;;;4.10;;
47882;SDS011;37739;50.350;7.578;2024-03-22T14:25:17;5.10;;;4.70;;
47882;SDS011;37739;50.350;7.578;2024-03-22T14:27:43;5.53;;;4.90;;
47882;SDS011;37739;50.350;7.578;2024-03-22T14:30:11;7.80;;;6.77;;
47882;SDS011;37739;50.350;7.578;2024-03-22T14:32:38;5.33;;;4.83;;
47882;SDS011;37739;50.350;7.578;2024-03-22T14:35:06;5.20;;;4.70;;
47882;SDS011;37739;50.350;7.578;2024-03-22T14:37:35;6.10;;;5.50;;
47882;SDS011;37739;50.350;7.578;2024-03-22T14:40:05;6.50;;;5.60;;
47882;SDS011;37739;50.350;7.578;2024-03-22T14:42:35;5.30;;;4.50;;